Pagina principale
METAR-TAF:

METAR-TAF

Aeroporti :

Monte Scuro, Italia

latitudine: 39-20N, longitudine: 016-24E, altezza: 1710 m

Osservazione

Il bollettino è stato emesso 39 minuti fa, alle 19:55 UTC
Vento 10 kt da ovest/nord-ovest
Temperature 12°C
Umidità 100%
Pressione 1012 hPa
Visibilità minore di 50 m
nebbia

METAR: LIBQ 251955Z 29010KT 0000 FG VV/// 12/12 Q1012 RMK MON INVIS VAL INVIS VIS MIN 0000

Ora: 22:34 (20:34 UTC)


TAF: mancante

Osservazioni e previsioni meteorologiche di più di 4000 aeroporti (messaggi METAR e TAF).

Le stazioni disponibili sono rappresentate dai dischi gialli e rossi sulla carta.

Puntare il mouse per vedere il nome della stazione.

Clicca sopra per visualizzare le osservazioni e previsioni meteorologiche.

Per cambiare la mappa : fare clic sui pulsanti verdi con una croce nera per ingrandire, il pulsante verde con un trattino per diminuire, o sulla freccia verde per le mappe adiacenti.


METAR-TAF: